Time;durP1;ratioP1;P1;durP2;ratioP2;P2;SDS_P1;SDS_P2;PMS_P1;PMS_P2;Temp;Humidity;BMP_temperature;BMP_pressure;BME280_temperature;BME280_humidity;BME280_pressure;Samples;Min_cycle;Max_cycle;Signal;HPM_P1;HPM_P2
2023/09/25 00:00:30;;;;;;;16.85;6.50;;;;;;;-143.21;65.93;71328.63;5108338;28;20200;-86
2023/09/25 00:02:59;;;;;;;17.23;6.32;;;;;;;-143.21;66.00;71334.59;5106809;28;20207;-86
2023/09/25 00:05:26;;;;;;;14.55;6.18;;;;;;;-143.21;65.92;71338.53;5110973;28;20287;-82
2023/09/25 00:07:54;;;;;;;16.92;6.22;;;;;;;-143.21;66.08;71342.50;5112180;28;20200;-82
2023/09/25 00:10:21;;;;;;;15.27;6.28;;;;;;;-143.21;66.17;71338.53;5109057;28;20745;-82
2023/09/25 00:13:01;;;;;;;17.67;6.10;;;;;;;-143.21;66.19;71338.53;5111511;28;20641;-82
2023/09/25 00:15:29;;;;;;;14.80;5.90;;;;;;;-143.21;65.94;71352.44;5106641;28;20212;-81
2023/09/25 00:17:57;;;;;;;21.15;6.25;;;;;;;-143.21;66.33;71372.25;5112211;28;20687;-80
2023/09/25 00:20:25;;;;;;;15.75;6.47;;;;;;;-143.21;66.81;71386.13;5112795;28;20196;-81
2023/09/25 00:22:52;;;;;;;24.73;6.00;;;;;;;-143.21;67.04;71398.03;5109848;28;20203;-81
2023/09/25 00:25:20;;;;;;;21.45;6.30;;;;;;;-143.21;67.31;71415.88;5112286;28;20215;-82
2023/09/25 00:27:50;;;;;;;16.67;6.03;;;;;;;-143.21;67.58;71419.84;5110568;28;20200;-82
2023/09/25 00:30:18;;;;;;;22.02;6.07;;;;;;;-143.21;67.21;71417.84;5110745;28;20306;-80
2023/09/25 00:32:45;;;;;;;17.30;5.70;;;;;;;-143.21;66.76;71423.78;5110980;28;20227;-81
2023/09/25 00:35:12;;;;;;;10.68;5.50;;;;;;;-143.21;66.79;71445.59;5110635;28;20204;-82
2023/09/25 00:37:40;;;;;;;14.90;6.00;;;;;;;-143.21;67.49;71459.47;5111157;28;20671;-81
2023/09/25 00:40:12;;;;;;;13.85;6.22;;;;;;;-143.21;67.14;71463.44;5110801;28;20257;-82
2023/09/25 00:42:40;;;;;;;21.92;5.57;;;;;;;-143.21;67.39;71463.44;5110894;28;20196;-82
2023/09/25 00:45:08;;;;;;;13.85;5.60;;;;;;;-143.21;67.29;71439.66;5111354;27;20227;-81
2023/09/25 00:47:41;;;;;;;12.05;5.68;;;;;;;-143.21;66.27;71417.84;5111331;28;20192;-81
2023/09/25 00:50:09;;;;;;;13.73;5.45;;;;;;;-143.21;65.14;71403.97;5110748;28;20227;-82
2023/09/25 00:52:39;;;;;;;15.10;5.47;;;;;;;-143.21;65.19;71402.00;5107836;27;20212;-81
2023/09/25 00:55:06;;;;;;;11.20;5.22;;;;;;;-143.21;65.05;71394.06;5108978;28;20204;-82
2023/09/25 00:57:34;;;;;;;13.25;5.57;;;;;;;-143.21;65.36;71392.06;5111253;28;20212;-83
2023/09/25 01:00:02;;;;;;;16.70;5.32;;;;;;;-143.21;64.96;71392.06;5110575;28;20243;-83
2023/09/25 01:02:38;;;;;;;15.27;5.90;;;;;;;-143.21;65.15;71396.03;5111722;28;20299;-83
2023/09/25 01:05:08;;;;;;;14.07;5.97;;;;;;;-143.21;65.25;71403.97;5110052;28;20573;-83
2023/09/25 01:07:36;;;;;;;14.90;5.50;;;;;;;-143.21;64.94;71403.97;5112118;28;20204;-82
2023/09/25 01:10:09;;;;;;;13.32;5.20;;;;;;;-143.21;64.83;71407.94;5112134;28;20362;-82
2023/09/25 01:12:37;;;;;;;15.25;5.72;;;;;;;-143.21;65.06;71398.03;5109620;28;20208;-82
2023/09/25 01:15:04;;;;;;;12.75;5.05;;;;;;;-143.21;65.26;71411.91;5108635;28;20583;-83
2023/09/25 01:17:31;;;;;;;14.07;6.03;;;;;;;-143.21;65.46;71417.84;5106297;28;20202;-83
2023/09/25 01:20:02;;;;;;;20.40;6.00;;;;;;;-143.21;65.97;71425.78;5109087;28;20196;-82
2023/09/25 01:22:30;;;;;;;16.83;5.88;;;;;;;-143.21;65.90;71433.72;5108185;28;20204;-83
2023/09/25 01:24:57;;;;;;;12.77;5.20;;;;;;;-143.21;66.00;71439.66;5107081;28;20196;-82
2023/09/25 01:27:23;;;;;;;12.70;5.50;;;;;;;-143.21;66.32;71441.63;5110133;28;20241;-84
2023/09/25 01:29:50;;;;;;;11.85;6.00;;;;;;;-143.21;66.42;71441.63;5110740;28;20281;-85
2023/09/25 01:32:17;;;;;;;14.48;5.68;;;;;;;-143.21;66.99;71449.56;5110647;28;20235;-85
2023/09/25 01:34:44;;;;;;;16.25;6.00;;;;;;;-143.21;66.98;71451.56;5110034;28;20200;-86
2023/09/25 01:37:11;;;;;;;12.90;5.38;;;;;;;-143.21;66.94;71449.56;5111077;28;20231;-87
2023/09/25 01:39:40;;;;;;;15.75;5.53;;;;;;;-143.21;67.20;71457.50;5108357;28;20521;-84
2023/09/25 01:42:07;;;;;;;13.23;5.78;;;;;;;-143.21;67.32;71463.44;5110143;28;20238;-86
2023/09/25 01:44:34;;;;;;;16.85;5.60;;;;;;;-143.21;67.74;71459.47;5109896;28;20207;-86
2023/09/25 01:47:01;;;;;;;11.55;5.47;;;;;;;-143.21;67.00;71443.63;5108998;28;20481;-83
2023/09/25 01:49:30;;;;;;;13.23;5.95;;;;;;;-143.21;66.17;71439.66;5108720;28;20220;-83
2023/09/25 01:52:07;;;;;;;;;;;;;;;;;;;;;
2023/09/25 01:54:35;;;;;;;15.65;6.47;;;;;;;-143.21;66.67;71447.59;5107094;28;20191;-83
2023/09/25 01:57:04;;;;;;;11.30;5.90;;;;;;;-143.21;66.06;71447.59;5109826;28;20204;-83
2023/09/25 01:59:31;;;;;;;12.70;5.47;;;;;;;-143.21;66.58;71459.47;5107217;28;20256;-82
2023/09/25 02:01:58;;;;;;;10.88;5.55;;;;;;;-143.21;66.74;71465.44;5110251;28;20219;-83
2023/09/25 02:04:25;;;;;;;17.95;5.80;;;;;;;-143.21;66.27;71467.41;5106999;28;20227;-82
2023/09/25 02:06:52;;;;;;;18.42;5.50;;;;;;;-143.21;66.93;71485.25;5107697;28;20624;-82
2023/09/25 02:09:19;;;;;;;11.95;5.35;;;;;;;-143.21;66.74;71487.25;5109993;28;20238;-82
2023/09/25 02:11:45;;;;;;;13.25;5.50;;;;;;;-143.21;66.35;71495.19;5109722;28;20719;-82
2023/09/25 02:14:20;;;;;;;21.02;5.75;;;;;;;-143.21;66.27;71499.13;5109325;28;20204;-84
2023/09/25 02:16:46;;;;;;;14.70;5.35;;;;;;;-143.21;66.09;71497.16;5111143;28;20211;-83
2023/09/25 02:19:18;;;;;;;12.07;5.25;;;;;;;-143.21;65.50;71491.22;5108602;28;20206;-81
2023/09/25 02:21:45;;;;;;;10.57;5.15;;;;;;;-143.21;64.84;71491.22;5109586;28;20223;-81
2023/09/25 02:24:15;;;;;;;8.00;5.43;;;;;;;-143.21;64.28;71491.22;5109544;28;20200;-81
2023/09/25 02:26:42;;;;;;;9.55;5.10;;;;;;;-143.21;64.43;71493.19;5109190;28;20204;-81
2023/09/25 02:29:09;;;;;;;12.50;5.68;;;;;;;-143.21;64.09;71481.28;5109991;28;20235;-81
2023/09/25 02:31:45;;;;;;;10.18;5.20;;;;;;;-143.21;64.05;71499.13;5109155;28;20204;-81
2023/09/25 02:34:14;;;;;;;9.32;5.05;;;;;;;-143.21;63.95;71507.06;5108976;28;20646;-82
2023/09/25 02:36:41;;;;;;;11.35;4.68;;;;;;;-143.21;64.06;71511.03;5109015;28;20636;-82
2023/09/25 02:39:09;;;;;;;16.23;4.80;;;;;;;-143.21;64.49;71526.91;5109928;28;20241;-81
2023/09/25 02:41:36;;;;;;;14.27;5.72;;;;;;;-143.21;64.54;71532.84;5109426;28;20711;-80
2023/09/25 02:44:03;;;;;;;11.73;5.07;;;;;;;-143.21;64.72;71544.75;5109257;28;20231;-80
2023/09/25 02:46:29;;;;;;;19.75;5.88;;;;;;;-143.21;64.91;71560.59;5108750;28;20210;-81
2023/09/25 02:48:58;;;;;;;8.05;4.85;;;;;;;-143.21;64.85;71566.56;5109848;28;20234;-81
2023/09/25 02:51:25;;;;;;;8.10;4.75;;;;;;;-143.21;64.87;71572.50;5106846;28;20211;-80
2023/09/25 02:53:52;;;;;;;9.40;5.40;;;;;;;-143.21;65.14;71582.41;5108490;28;20206;-80
2023/09/25 02:56:19;;;;;;;14.02;5.15;;;;;;;-143.21;65.47;71592.31;5109703;28;20687;-81
2023/09/25 02:58:47;;;;;;;10.55;5.35;;;;;;;-143.21;65.68;71592.31;5108576;28;20737;-81
2023/09/25 03:01:14;;;;;;;12.32;5.20;;;;;;;-143.21;65.68;71598.28;5109265;28;20208;-82
2023/09/25 03:03:41;;;;;;;15.40;5.97;;;;;;;-143.21;65.64;71598.28;5106345;28;20196;-81
2023/09/25 03:06:09;;;;;;;9.48;5.53;;;;;;;-143.21;65.69;71616.13;5108739;28;20639;-82
2023/09/25 03:08:36;;;;;;;8.00;5.82;;;;;;;-143.21;65.90;71616.13;5108274;28;20287;-82
2023/09/25 03:11:06;;;;;;;16.38;6.50;;;;;;;-143.21;65.93;71616.13;5109155;28;20635;-82
2023/09/25 03:13:33;;;;;;;13.70;6.18;;;;;;;-143.21;66.17;71628.00;5108379;28;20203;-82
2023/09/25 03:15:59;;;;;;;10.07;5.93;;;;;;;-143.21;66.50;71633.97;5109058;28;20195;-82
2023/09/25 03:18:26;;;;;;;11.00;6.18;;;;;;;-143.21;66.64;71633.97;5109260;28;20211;-82
2023/09/25 03:20:53;;;;;;;10.98;6.00;;;;;;;-143.21;66.69;71641.91;5109231;28;20957;-82
2023/09/25 03:23:22;;;;;;;12.77;6.43;;;;;;;-143.21;66.55;71647.84;5108959;28;20605;-81
2023/09/25 03:25:48;;;;;;;10.20;6.70;;;;;;;-143.21;66.48;71643.88;5108323;28;20208;-81
2023/09/25 03:28:15;;;;;;;9.40;6.55;;;;;;;-143.21;66.42;71645.88;5108232;28;20200;-81
2023/09/25 03:30:42;;;;;;;25.95;7.20;;;;;;;-143.21;66.59;71641.91;5107595;28;20216;-81
2023/09/25 03:33:11;;;;;;;11.55;7.32;;;;;;;-143.21;66.37;71637.94;5106612;28;20236;-81
2023/09/25 03:35:39;;;;;;;13.32;7.18;;;;;;;-143.21;66.41;71647.84;5107706;28;20196;-82
2023/09/25 03:38:05;;;;;;;13.68;7.47;;;;;;;-143.21;65.98;71645.88;5108235;28;20645;-82
2023/09/25 03:40:34;;;;;;;10.35;7.43;;;;;;;-143.21;65.93;71657.75;5107617;28;20208;-83
2023/09/25 03:43:02;;;;;;;11.02;7.90;;;;;;;-143.21;65.91;71653.78;5104190;28;20207;-81
2023/09/25 03:45:29;;;;;;;16.23;7.90;;;;;;;-143.21;66.01;71661.72;5108310;28;20196;-81
2023/09/25 03:47:58;;;;;;;10.95;8.15;;;;;;;-143.21;65.98;71659.75;5106159;28;20201;-80
2023/09/25 03:50:25;;;;;;;18.73;8.27;;;;;;;-143.21;66.16;71659.75;5104925;28;20242;-80
2023/09/25 03:52:52;;;;;;;15.57;9.25;;;;;;;-143.21;66.00;71659.75;5107986;28;20219;-82
2023/09/25 03:55:18;;;;;;;17.83;9.35;;;;;;;-143.21;66.46;71657.75;5108654;28;20760;-80
2023/09/25 03:57:46;;;;;;;13.40;9.45;;;;;;;-143.21;66.48;71653.78;5107109;28;20679;-80
2023/09/25 04:00:14;;;;;;;14.00;10.00;;;;;;;-143.21;66.35;71651.81;5108378;28;20250;-80
2023/09/25 04:02:42;;;;;;;17.27;10.70;;;;;;;-143.21;66.75;71657.75;5108028;28;20224;-80
2023/09/25 04:05:12;;;;;;;18.08;10.18;;;;;;;-143.21;67.04;71655.78;5104734;28;20204;-80
2023/09/25 04:07:39;;;;;;;15.75;11.50;;;;;;;-143.21;66.93;71657.75;5108037;28;20204;-81
2023/09/25 04:10:07;;;;;;;23.48;11.13;;;;;;;-143.21;67.32;71655.78;5108353;28;20234;-81
2023/09/25 04:12:35;;;;;;;16.55;11.27;;;;;;;-143.21;67.25;71653.78;5107648;28;20199;-80
2023/09/25 04:15:04;;;;;;;16.77;11.80;;;;;;;-143.21;67.65;71657.75;5106196;28;20231;-80
2023/09/25 04:17:33;;;;;;;24.95;12.52;;;;;;;-143.21;68.18;71657.75;5107355;28;20199;-80
2023/09/25 04:20:02;;;;;;;19.23;12.32;;;;;;;-143.21;68.58;71673.63;5102949;28;20291;-82
2023/09/25 04:22:29;;;;;;;21.73;12.90;;;;;;;-143.21;68.62;71669.66;5106449;28;20215;-82
2023/09/25 04:24:55;;;;;;;19.83;12.20;;;;;;;-143.21;69.01;71677.59;5106653;28;20200;-82
2023/09/25 04:27:24;;;;;;;20.23;11.25;;;;;;;-143.21;69.11;71681.56;5106336;28;20203;-81
2023/09/25 04:29:51;;;;;;;13.02;9.68;;;;;;;-143.21;69.53;71703.34;5105421;28;20238;-80
2023/09/25 04:32:19;;;;;;;12.30;9.23;;;;;;;-143.21;70.17;71717.25;5105853;28;20718;-80
2023/09/25 04:34:47;;;;;;;15.18;8.77;;;;;;;-143.21;70.47;71741.03;5106732;28;20208;-88
2023/09/25 04:37:14;;;;;;;17.77;9.65;;;;;;;-143.21;70.79;71739.06;5105965;28;20575;-80
2023/09/25 04:39:40;;;;;;;17.80;10.52;;;;;;;-143.21;71.60;71752.94;5105253;28;20208;-81
2023/09/25 04:42:09;;;;;;;15.95;10.98;;;;;;;-143.21;71.99;71754.91;5105966;28;20203;-82
2023/09/25 04:44:35;;;;;;;17.42;11.98;;;;;;;-143.21;71.67;71754.91;5106124;28;20204;-82
2023/09/25 04:47:02;;;;;;;17.85;11.65;;;;;;;-143.21;72.16;71764.81;5106518;28;20261;-82
2023/09/25 04:49:31;;;;;;;27.38;12.48;;;;;;;-143.21;72.65;71772.75;5105637;28;20276;-82
2023/09/25 04:51:59;;;;;;;21.08;11.93;;;;;;;-143.21;72.63;71770.78;5109022;28;20233;-83
2023/09/25 04:54:26;;;;;;;20.63;12.23;;;;;;;-143.21;72.51;71778.72;5109487;28;20211;-82
2023/09/25 04:56:53;;;;;;;19.65;12.27;;;;;;;-143.21;73.06;71784.66;5107651;28;20212;-82
2023/09/25 04:59:20;;;;;;;16.73;11.52;;;;;;;-143.21;73.44;71788.63;5109921;28;20204;-82
2023/09/25 05:01:46;;;;;;;21.35;12.40;;;;;;;-143.21;73.07;71776.72;5110583;28;20200;-82
2023/09/25 05:04:16;;;;;;;18.42;11.02;;;;;;;-143.21;73.19;71772.75;5111756;28;20204;-82
2023/09/25 05:06:45;;;;;;;16.60;12.02;;;;;;;-143.21;73.35;71778.72;5112107;28;20686;-80
2023/09/25 05:09:30;;;;;;;19.88;12.93;;;;;;;-143.21;73.76;71780.69;5111387;28;20203;-82
2023/09/25 05:11:59;;;;;;;18.58;12.55;;;;;;;-143.21;73.83;71782.69;5108546;28;20283;-81
2023/09/25 05:14:25;;;;;;;16.70;12.32;;;;;;;-143.21;74.31;71786.63;5107733;28;20643;-80
2023/09/25 05:16:52;;;;;;;19.60;12.75;;;;;;;-143.21;74.33;71788.63;5110208;28;20211;-80
2023/09/25 05:19:19;;;;;;;16.80;11.90;;;;;;;-143.21;73.74;71782.69;5110166;28;20208;-81
2023/09/25 05:21:47;;;;;;;17.42;11.88;;;;;;;-143.21;73.96;71784.66;5110000;28;20212;-80
2023/09/25 05:24:15;;;;;;;22.85;11.30;;;;;;;-143.21;73.93;71788.63;5109630;28;20327;-80
2023/09/25 05:26:42;;;;;;;16.27;9.57;;;;;;;-143.21;73.58;71794.56;5109974;28;20222;-80
2023/09/25 05:29:09;;;;;;;12.57;9.63;;;;;;;-143.21;73.44;71802.50;5109974;28;20257;-80
2023/09/25 05:31:35;;;;;;;15.65;10.18;;;;;;;-143.21;73.65;71810.44;5108882;28;20231;-80
2023/09/25 05:34:03;;;;;;;18.40;10.02;;;;;;;-143.21;73.70;71814.41;5109364;28;20207;-81
2023/09/25 05:36:30;;;;;;;15.75;10.55;;;;;;;-143.21;73.34;71808.44;5109266;28;20690;-80
2023/09/25 05:38:59;;;;;;;16.50;9.55;;;;;;;-143.21;73.92;71820.34;5109633;28;20722;-80
2023/09/25 05:41:26;;;;;;;18.42;10.05;;;;;;;-143.21;73.78;71816.38;5105703;28;20239;-80
2023/09/25 05:43:53;;;;;;;19.20;10.38;;;;;;;-143.21;73.34;71824.31;5108396;28;20212;-80
2023/09/25 05:46:21;;;;;;;15.00;10.48;;;;;;;-143.21;73.57;71826.28;5108366;28;20663;-80
2023/09/25 05:48:49;;;;;;;20.73;10.05;;;;;;;-143.21;73.07;71824.31;5108596;28;20695;-79
2023/09/25 05:51:15;;;;;;;16.88;10.20;;;;;;;-143.21;73.43;71816.38;5116275;28;20216;-80
2023/09/25 05:53:42;;;;;;;17.75;9.93;;;;;;;-143.21;73.21;71812.41;5108798;28;20212;-80
2023/09/25 05:56:10;;;;;;;18.38;10.60;;;;;;;-143.21;73.36;71816.38;5106921;28;20218;-82
2023/09/25 05:58:46;;;;;;;18.58;10.77;;;;;;;-143.21;73.51;71814.41;5108756;28;20219;-81
2023/09/25 06:01:16;;;;;;;24.58;11.38;;;;;;;-143.21;73.41;71806.47;5110827;28;20214;-81
2023/09/25 06:03:43;;;;;;;20.80;11.02;;;;;;;-143.21;73.18;71802.50;5115392;28;20211;-82
2023/09/25 06:06:10;;;;;;;19.67;10.80;;;;;;;-143.21;72.99;71798.53;5108604;28;20670;-81
2023/09/25 06:08:37;;;;;;;17.30;11.52;;;;;;;-143.21;73.20;71800.53;5105868;27;20307;-82
2023/09/25 06:11:07;;;;;;;15.02;10.15;;;;;;;-143.21;72.98;71772.75;5104009;28;20259;-81
2023/09/25 06:13:35;;;;;;;20.38;10.75;;;;;;;-143.21;72.75;71762.84;5107973;28;20211;-81
2023/09/25 06:16:02;;;;;;;25.38;11.85;;;;;;;-143.21;72.44;71754.91;5108525;28;20566;-81
2023/09/25 06:18:29;;;;;;;19.13;11.77;;;;;;;-143.21;71.94;71735.09;5108154;28;20577;-81
2023/09/25 06:20:56;;;;;;;21.02;11.75;;;;;;;-143.21;71.74;71733.09;5108614;28;20287;-81
2023/09/25 06:23:23;;;;;;;25.38;12.85;;;;;;;-143.21;71.82;71727.16;5107989;28;20215;-81
2023/09/25 06:25:49;;;;;;;23.52;12.90;;;;;;;-143.21;71.58;71721.22;5106699;28;20208;-82
2023/09/25 06:28:29;;;;;;;23.35;13.18;;;;;;;-143.21;71.30;71713.28;5107499;28;20598;-82
2023/09/25 06:30:57;;;;;;;16.80;11.82;;;;;;;-143.21;71.60;71703.34;5107185;28;20234;-79
2023/09/25 06:33:25;;;;;;;18.40;12.50;;;;;;;-143.21;71.43;71687.50;5103510;28;20288;-78
2023/09/25 06:35:52;;;;;;;21.42;11.13;;;;;;;-143.21;72.47;71673.63;5107165;28;20214;-80
2023/09/25 06:38:19;;;;;;;17.35;12.23;;;;;;;-143.21;71.77;71651.81;5107601;28;20212;-79
2023/09/25 06:40:46;;;;;;;18.40;12.25;;;;;;;-143.21;69.91;71641.91;5107173;28;20523;-80
2023/09/25 06:43:13;;;;;;;18.52;11.73;;;;;;;-143.21;69.39;71633.97;5105639;28;20207;-79
2023/09/25 06:45:40;;;;;;;18.13;11.88;;;;;;;-143.21;69.20;71639.91;5106869;28;20208;-79
2023/09/25 06:48:09;;;;;;;18.70;11.82;;;;;;;-143.21;68.76;71628.00;5107375;28;20282;-80
2023/09/25 06:50:36;;;;;;;20.90;12.27;;;;;;;-143.21;68.52;71618.09;5106831;28;20570;-80
2023/09/25 06:53:03;;;;;;;17.25;12.50;;;;;;;-143.21;68.32;71620.09;5106963;28;20295;-80
2023/09/25 06:55:30;;;;;;;21.00;12.48;;;;;;;-143.21;68.19;71604.22;5106573;28;20207;-79
2023/09/25 06:57:57;;;;;;;20.48;12.73;;;;;;;-143.21;67.84;71612.16;5102040;28;20203;-79
2023/09/25 07:00:24;;;;;;;24.60;13.27;;;;;;;-143.21;67.77;71604.22;5108242;28;20200;-80
2023/09/25 07:02:55;;;;;;;21.13;13.52;;;;;;;-143.21;67.48;71604.22;5107061;28;20215;-79
2023/09/25 07:05:24;;;;;;;21.83;14.18;;;;;;;-143.21;67.43;71596.28;5106935;28;20199;-80
2023/09/25 07:07:51;;;;;;;23.10;13.10;;;;;;;-143.21;67.12;71602.25;5106854;28;20208;-80
2023/09/25 07:10:18;;;;;;;20.60;12.65;;;;;;;-143.21;66.69;71590.34;5108022;28;20223;-80
2023/09/25 07:12:47;;;;;;;17.58;14.60;;;;;;;-143.21;66.75;71592.31;5107245;28;20616;-80
2023/09/25 07:15:14;;;;;;;21.40;12.60;;;;;;;-143.21;66.42;71580.44;5106627;28;20203;-80
2023/09/25 07:17:46;;;;;;;21.77;13.48;;;;;;;-143.21;66.08;71570.53;5106346;28;20245;-80
2023/09/25 07:20:13;;;;;;;22.45;14.52;;;;;;;-143.21;65.68;71548.72;5105596;28;20210;-80
2023/09/25 07:22:42;;;;;;;22.95;14.32;;;;;;;-143.21;65.38;71538.78;5106596;28;20226;-84
2023/09/25 07:25:10;;;;;;;26.75;13.18;;;;;;;-143.21;64.11;71530.88;5107007;28;20263;-80
2023/09/25 07:27:37;;;;;;;25.38;13.07;;;;;;;-143.21;63.38;71530.88;5106061;28;20299;-83
2023/09/25 07:30:05;;;;;;;25.88;13.27;;;;;;;-143.21;61.56;71530.88;5106565;28;20698;-82
2023/09/25 07:32:32;;;;;;;19.45;12.25;;;;;;;-143.21;61.15;71524.91;5106955;28;20238;-84
2023/09/25 07:34:59;;;;;;;29.58;12.85;;;;;;;-143.21;60.54;71528.88;5104690;28;20206;-85
2023/09/25 07:37:26;;;;;;;24.15;13.90;;;;;;;-143.21;60.79;71522.94;5103924;28;20203;-85
2023/09/25 07:39:54;;;;;;;18.30;13.65;;;;;;;-143.21;60.62;71513.03;5107387;28;20256;-85
2023/09/25 07:42:21;;;;;;;19.95;13.02;;;;;;;-143.21;60.28;71515.00;5107307;28;20207;-85
2023/09/25 07:44:48;;;;;;;20.25;13.80;;;;;;;-143.21;60.24;71507.06;5110335;28;20210;-81
2023/09/25 07:47:17;;;;;;;23.33;12.43;;;;;;;-143.21;59.77;71505.09;5108175;28;20400;-82
2023/09/25 07:49:45;;;;;;;27.30;12.48;;;;;;;-143.21;58.94;71511.03;5106473;28;20206;-86
2023/09/25 07:52:16;;;;;;;18.75;12.18;;;;;;;-143.21;58.15;71499.13;5107528;28;20311;-84
2023/09/25 07:54:45;;;;;;;22.33;12.48;;;;;;;-143.21;58.57;71501.13;5110341;28;20212;-86
2023/09/25 07:57:15;;;;;;;16.08;11.32;;;;;;;-143.21;57.60;71497.16;5108719;28;20277;-84
2023/09/25 07:59:43;;;;;;;150.18;22.17;;;;;;;-143.21;57.97;71497.16;5090125;28;20236;-81
2023/09/25 08:02:11;;;;;;;118.68;21.00;;;;;;;-143.21;57.48;71499.13;5090288;28;20189;-84
2023/09/25 08:04:38;;;;;;;41.92;13.23;;;;;;;-143.21;57.29;71499.13;5099183;28;20246;-84
2023/09/25 08:07:05;;;;;;;47.05;14.10;;;;;;;-143.21;57.24;71491.22;5102969;28;20211;-81
2023/09/25 08:09:32;;;;;;;22.35;12.07;;;;;;;-143.21;57.42;71471.38;5092320;28;20200;-84
2023/09/25 08:11:59;;;;;;;18.50;11.73;;;;;;;-143.21;56.99;71471.38;5105342;28;20241;-84
2023/09/25 08:14:27;;;;;;;18.80;11.10;;;;;;;-143.21;56.86;71463.44;5101913;28;20627;-84
2023/09/25 08:16:54;;;;;;;18.42;10.18;;;;;;;-143.21;56.89;71449.56;5121243;28;20212;-85
2023/09/25 08:19:23;;;;;;;20.02;9.48;;;;;;;-143.21;56.82;71431.72;5105873;28;20204;-85
2023/09/25 08:21:51;;;;;;;14.48;8.80;;;;;;;-143.21;56.42;71425.78;5109448;28;20260;-85
2023/09/25 08:24:18;;;;;;;16.50;9.60;;;;;;;-143.21;55.58;71407.94;5111976;28;20569;-86
2023/09/25 08:26:46;;;;;;;27.40;8.77;;;;;;;-143.21;55.16;71384.16;5106452;28;20200;-86
2023/09/25 08:29:13;;;;;;;20.83;9.02;;;;;;;-143.21;55.35;71394.06;5099461;28;20593;-85
2023/09/25 08:31:43;;;;;;;14.07;8.38;;;;;;;-143.21;54.53;71407.94;5097439;28;20292;-85
2023/09/25 08:34:10;;;;;;;11.88;8.02;;;;;;;-143.21;54.46;71402.00;5115323;28;20287;-85
2023/09/25 08:36:37;;;;;;;18.27;8.05;;;;;;;-143.21;54.60;71402.00;5115842;28;20658;-85
2023/09/25 08:39:10;;;;;;;18.52;8.75;;;;;;;-143.21;54.48;71392.06;5115923;28;20206;-86
2023/09/25 08:41:39;;;;;;;10.88;7.68;;;;;;;-143.21;54.29;71400.00;5115510;28;20184;-86
2023/09/25 08:44:07;;;;;;;20.33;7.95;;;;;;;-143.21;54.09;71380.19;5115581;28;20208;-86
2023/09/25 08:46:34;;;;;;;15.23;8.73;;;;;;;-143.21;53.82;71370.28;5110698;28;20200;-86
2023/09/25 08:49:02;;;;;;;16.77;8.00;;;;;;;-143.21;53.29;71362.34;5104945;28;20585;-86
2023/09/25 08:51:34;;;;;;;16.60;7.45;;;;;;;-143.21;53.27;71356.38;5101199;28;20578;-86
2023/09/25 08:54:03;;;;;;;49.38;8.85;;;;;;;-143.21;53.08;71364.31;5094916;28;20609;-85
2023/09/25 08:56:32;;;;;;;17.23;6.90;;;;;;;-143.21;53.06;71364.31;5099376;28;20575;-86
2023/09/25 08:59:01;;;;;;;15.13;6.70;;;;;;;-143.21;52.95;71368.28;5106648;28;20208;-86
2023/09/25 09:01:29;;;;;;;18.88;6.13;;;;;;;-143.21;52.90;71346.47;5101133;28;20664;-86
2023/09/25 09:03:56;;;;;;;23.50;6.28;;;;;;;-143.21;52.31;71336.56;5102565;28;20199;-86
2023/09/25 09:06:25;;;;;;;11.65;6.40;;;;;;;-143.21;52.47;71328.63;5113940;28;20204;-86
2023/09/25 09:08:52;;;;;;;10.10;6.25;;;;;;;-143.21;52.56;71332.59;5114886;28;20200;-86
2023/09/25 09:11:23;;;;;;;11.50;6.45;;;;;;;-143.21;52.27;71336.56;5115570;28;20583;-86
2023/09/25 09:13:50;;;;;;;11.50;5.55;;;;;;;-143.21;52.91;71352.44;5120148;28;20200;-86
2023/09/25 09:16:19;;;;;;;16.95;6.15;;;;;;;-143.21;53.56;71364.31;5111061;28;20208;-85
2023/09/25 09:18:47;;;;;;;14.75;6.25;;;;;;;-143.21;53.64;71374.22;5106583;28;20205;-86
2023/09/25 09:21:26;;;;;;;25.15;6.88;;;;;;;-143.21;53.52;71354.41;5107082;28;20204;-85
2023/09/25 09:23:56;;;;;;;20.33;7.15;;;;;;;-143.21;53.43;71352.44;5117396;28;20261;-84
2023/09/25 09:26:25;;;;;;;14.75;6.40;;;;;;;-143.21;53.64;71358.38;5115950;28;20196;-86
2023/09/25 09:28:53;;;;;;;17.15;6.72;;;;;;;-143.21;53.87;71372.25;5115586;28;20333;-84
2023/09/25 09:31:22;;;;;;;12.55;6.50;;;;;;;-143.21;54.28;71368.28;5109891;28;20312;-85
2023/09/25 09:33:54;;;;;;;12.13;6.70;;;;;;;-143.21;54.33;71358.38;5100726;28;20197;-86
2023/09/25 09:36:23;;;;;;;13.15;6.68;;;;;;;-143.21;54.31;71362.34;5093756;28;20197;-85
2023/09/25 09:39:01;;;;;;;16.38;6.78;;;;;;;-143.21;54.41;71354.41;5094221;28;20232;-86
2023/09/25 09:41:28;;;;;;;14.90;6.40;;;;;;;-143.21;54.24;71356.38;5095703;28;20262;-86
2023/09/25 09:43:58;;;;;;;14.02;6.45;;;;;;;-143.21;53.98;71346.47;5108473;28;20204;-86
2023/09/25 09:46:27;;;;;;;14.50;5.43;;;;;;;-143.21;53.66;71326.66;5094043;28;20649;-86
2023/09/25 09:48:56;;;;;;;14.50;5.97;;;;;;;-143.21;52.94;71316.75;5098076;28;20201;-85
2023/09/25 09:51:25;;;;;;;12.50;6.18;;;;;;;-143.21;52.84;71279.06;5099120;28;20695;-87
2023/09/25 09:53:54;;;;;;;10.95;5.28;;;;;;;-143.21;51.85;71261.22;5103157;28;20207;-86
2023/09/25 09:56:22;;;;;;;11.45;5.38;;;;;;;-143.21;51.67;71235.44;5115041;28;20188;-85
2023/09/25 09:58:50;;;;;;;9.40;5.47;;;;;;;-143.21;50.78;71231.50;5111558;28;20200;-85
2023/09/25 10:01:18;;;;;;;16.00;6.32;;;;;;;-143.21;51.38;71221.56;5109285;28;20213;-86
2023/09/25 10:03:44;;;;;;;12.23;5.57;;;;;;;-143.21;50.54;71223.56;5096661;28;20659;-85
2023/09/25 10:06:11;;;;;;;15.40;5.88;;;;;;;-143.21;50.50;71239.41;5098966;28;20208;-86
2023/09/25 10:08:41;;;;;;;37.55;6.82;;;;;;;-143.21;51.33;71249.34;5093582;28;20227;-85
2023/09/25 10:11:23;;;;;;;14.40;5.80;;;;;;;-143.21;50.85;71231.50;5093787;28;20221;-86
2023/09/25 10:13:50;;;;;;;8.55;5.20;;;;;;;-143.21;51.04;71237.44;5106705;28;20277;-86
2023/09/25 10:16:17;;;;;;;9.73;5.25;;;;;;;-143.21;50.89;71223.56;5107423;28;20205;-86
2023/09/25 10:18:51;;;;;;;10.95;5.28;;;;;;;-143.21;50.59;71217.59;5093797;28;20222;-85
2023/09/25 10:21:18;;;;;;;13.95;5.70;;;;;;;-143.21;50.70;71205.72;5110209;28;20202;-83
2023/09/25 10:23:48;;;;;;;30.88;6.18;;;;;;;-143.21;50.19;71189.84;5117444;28;20192;-86
2023/09/25 10:26:21;;;;;;;15.30;6.20;;;;;;;-143.21;49.81;71185.88;5107605;28;20260;-86
2023/09/25 10:28:58;;;;;;;9.65;5.35;;;;;;;-143.21;50.11;71191.84;5108256;28;20204;-86
2023/09/25 10:31:31;;;;;;;18.70;5.60;;;;;;;-143.21;50.04;71175.97;5104953;28;20743;-86
2023/09/25 10:34:00;;;;;;;17.80;6.30;;;;;;;-143.21;49.50;71166.06;5119629;28;20258;-86
2023/09/25 10:36:38;;;;;;;9.43;5.50;;;;;;;-143.21;49.66;71183.91;5114691;28;20651;-86
2023/09/25 10:39:08;;;;;;;9.80;6.13;;;;;;;-143.21;49.55;71174.00;5114254;28;20213;-85
2023/09/25 10:41:36;;;;;;;14.88;6.00;;;;;;;-143.21;49.44;71168.06;5106216;28;20253;-85
2023/09/25 10:44:04;;;;;;;16.00;6.25;;;;;;;-143.21;49.29;71146.25;5098320;28;20211;-86
2023/09/25 10:46:31;;;;;;;23.48;6.00;;;;;;;-143.21;48.93;71120.47;5104672;28;20215;-85
2023/09/25 10:48:58;;;;;;;10.52;5.55;;;;;;;-143.21;48.58;71096.69;5111195;28;20257;-87
2023/09/25 10:51:25;;;;;;;9.95;5.35;;;;;;;-143.21;47.93;71080.81;5113836;28;20227;-85
2023/09/25 10:53:53;;;;;;;12.35;5.15;;;;;;;-143.21;47.67;71076.84;5103716;28;20208;-86
2023/09/25 10:56:22;;;;;;;10.60;5.90;;;;;;;-143.21;48.15;71102.63;5103373;28;20201;-86
2023/09/25 10:58:52;;;;;;;15.98;5.35;;;;;;;-143.21;48.57;71116.50;5092623;28;20204;-87
2023/09/25 11:01:24;;;;;;;16.38;5.70;;;;;;;-143.21;48.17;71120.47;5093316;28;20590;-87
2023/09/25 11:03:59;;;;;;;15.18;5.40;;;;;;;-143.21;47.93;71128.41;5093065;28;20280;-87
2023/09/25 11:06:26;;;;;;;13.45;5.45;;;;;;;-143.21;48.17;71122.44;5112588;28;20279;-87
2023/09/25 11:08:58;;;;;;;21.80;5.80;;;;;;;-143.21;47.87;71146.25;5103236;28;20274;-87
2023/09/25 11:11:25;;;;;;;11.05;5.25;;;;;;;-143.21;47.74;71166.06;5094442;28;20662;-87
2023/09/25 11:13:54;;;;;;;17.75;5.88;;;;;;;-143.21;48.29;71166.06;5111586;28;20225;-86